Time;durP1;ratioP1;P1;durP2;ratioP2;P2;SDS_P1;SDS_P2;PMS_P1;PMS_P2;Temp;Humidity;BMP_temperature;BMP_pressure;BME280_temperature;BME280_humidity;BME280_pressure;Samples;Min_cycle;Max_cycle;Signal;HPM_P1;HPM_P2
2023/02/05 00:01:52;;;;;;;11.93;5.00;;;;;;;;;;6304731;22;20156;-87
2023/02/05 00:04:57;;;;;;;11.70;5.33;;;;;;;;;;6304589;22;20211;-89
2023/02/05 00:08:02;;;;;;;12.60;4.70;;;;;;;;;;6303893;22;20148;-89
2023/02/05 00:11:14;;;;;;;9.93;4.83;;;;;;;;;;6300857;22;20165;-87
2023/02/05 00:14:44;;;;;;;10.60;4.83;;;;;;;;;;6305605;22;20242;-89
2023/02/05 00:17:52;;;;;;;10.70;4.83;;;;;;;;;;6284805;22;20276;-88
2023/02/05 00:20:58;;;;;;;11.03;5.03;;;;;;;;;;6303294;22;20215;-91
2023/02/05 00:24:04;;;;;;;8.93;4.57;;;;;;;;;;6305129;22;20169;-87
2023/02/05 00:27:09;;;;;;;9.87;4.33;;;;;;;;;;6304235;22;20207;-90
2023/02/05 00:30:15;;;;;;;11.23;4.83;;;;;;;;;;6304195;22;20250;-88
2023/02/05 00:33:21;;;;;;;10.43;4.93;;;;;;;;;;6304956;22;20200;-89
2023/02/05 00:36:27;;;;;;;10.60;4.90;;;;;;;;;;6304269;22;20173;-88
2023/02/05 00:39:32;;;;;;;8.93;4.63;;;;;;;;;;6302923;22;20555;-87
2023/02/05 00:42:37;;;;;;;9.30;4.40;;;;;;;;;;6306368;22;20222;-88
2023/02/05 00:45:42;;;;;;;11.27;5.03;;;;;;;;;;6303657;22;20266;-89
2023/02/05 00:48:49;;;;;;;10.97;4.53;;;;;;;;;;6304022;22;20165;-91
2023/02/05 00:51:54;;;;;;;11.80;4.13;;;;;;;;;;6303254;22;20192;-90
2023/02/05 00:55:00;;;;;;;7.80;3.80;;;;;;;;;;6305217;22;20582;-88
2023/02/05 00:58:05;;;;;;;7.70;4.33;;;;;;;;;;6306416;22;20153;-89
2023/02/05 01:01:38;;;;;;;11.13;4.13;;;;;;;;;;6306187;22;20154;-88
2023/02/05 01:04:45;;;;;;;10.93;4.47;;;;;;;;;;6305826;22;20168;-90
2023/02/05 01:07:50;;;;;;;10.77;3.60;;;;;;;;;;6305306;22;20153;-88
2023/02/05 01:10:55;;;;;;;10.37;4.47;;;;;;;;;;6305367;22;20600;-88
2023/02/05 01:14:01;;;;;;;9.17;4.30;;;;;;;;;;6305785;22;20212;-91
2023/02/05 01:17:06;;;;;;;10.57;3.97;;;;;;;;;;6292158;22;20213;-89
2023/02/05 01:20:15;;;;;;;9.53;4.23;;;;;;;;;;6292128;22;20185;-89
2023/02/05 01:23:21;;;;;;;9.10;4.07;;;;;;;;;;6292011;22;20154;-89
2023/02/05 01:26:26;;;;;;;8.73;4.33;;;;;;;;;;6290611;22;20153;-88
2023/02/05 01:29:32;;;;;;;11.83;4.67;;;;;;;;;;6292643;22;20162;-88
2023/02/05 01:32:37;;;;;;;8.83;3.90;;;;;;;;;;6292074;22;20185;-89
2023/02/05 01:35:43;;;;;;;10.30;4.70;;;;;;;;;;6292464;22;20236;-89
2023/02/05 01:38:49;;;;;;;10.83;4.77;;;;;;;;;;6292754;22;20169;-87
2023/02/05 01:41:55;;;;;;;10.47;3.90;;;;;;;;;;6292195;22;20174;-88
2023/02/05 01:45:33;;;;;;;12.17;4.70;;;;;;;;;;6299873;22;20612;-87
2023/02/05 01:48:41;;;;;;;9.30;3.87;;;;;;;;;;6151723;23;20168;-91
2023/02/05 01:51:49;;;;;;;7.63;3.63;;;;;;;;;;6152337;23;20652;-88
2023/02/05 01:54:55;;;;;;;7.70;4.00;;;;;;;;;;6296173;22;20166;-88
2023/02/05 01:58:01;;;;;;;9.57;4.30;;;;;;;;;;6291539;22;20170;-90
2023/02/05 02:01:07;;;;;;;9.80;3.50;;;;;;;;;;6290968;22;20213;-88
2023/02/05 02:04:14;;;;;;;8.23;3.70;;;;;;;;;;6293668;22;20173;-90
2023/02/05 02:07:21;;;;;;;9.07;4.37;;;;;;;;;;6292383;22;20293;-88
2023/02/05 02:10:27;;;;;;;7.33;3.87;;;;;;;;;;6290261;22;20173;-88
2023/02/05 02:13:33;;;;;;;9.67;4.00;;;;;;;;;;6291399;22;20374;-88
2023/02/05 02:16:42;;;;;;;10.93;4.03;;;;;;;;;;6292587;22;20188;-88
2023/02/05 02:19:51;;;;;;;10.57;4.03;;;;;;;;;;6292916;22;20655;-91
2023/02/05 02:23:07;;;;;;;11.07;3.87;;;;;;;;;;6297303;22;20177;-86
2023/02/05 02:26:17;;;;;;;8.57;4.57;;;;;;;;;;6291561;22;20186;-88
2023/02/05 02:29:27;;;;;;;7.00;4.00;;;;;;;;;;6291763;22;20161;-92
2023/02/05 02:32:37;;;;;;;8.40;3.83;;;;;;;;;;6292053;22;20190;-91
2023/02/05 02:35:45;;;;;;;9.33;4.27;;;;;;;;;;6291114;22;20166;-89
2023/02/05 02:38:53;;;;;;;10.23;4.50;;;;;;;;;;6290306;22;20213;-89
2023/02/05 02:42:01;;;;;;;13.00;4.87;;;;;;;;;;6289882;22;20158;-88
2023/02/05 02:45:10;;;;;;;10.30;4.47;;;;;;;;;;6291117;22;20174;-89
2023/02/05 02:48:17;;;;;;;11.27;4.30;;;;;;;;;;6290975;22;20612;-89
2023/02/05 02:51:24;;;;;;;8.70;4.23;;;;;;;;;;6289319;22;20162;-91
2023/02/05 02:54:29;;;;;;;7.93;3.67;;;;;;;;;;6290571;22;20676;-91
2023/02/05 02:57:36;;;;;;;10.33;3.90;;;;;;;;;;6291076;22;20170;-89
2023/02/05 03:00:45;;;;;;;10.63;4.17;;;;;;;;;;6291216;22;20189;-91
2023/02/05 03:03:52;;;;;;;7.53;3.30;;;;;;;;;;6292299;22;20241;-90
2023/02/05 03:07:00;;;;;;;8.67;3.40;;;;;;;;;;6290745;22;20165;-88
2023/02/05 03:10:08;;;;;;;5.90;3.10;;;;;;;;;;6289979;22;20226;-90
2023/02/05 03:13:15;;;;;;;5.17;3.07;;;;;;;;;;6289751;22;20189;-88
2023/02/05 03:16:28;;;;;;;10.60;3.90;;;;;;;;;;6290719;22;20185;-92
2023/02/05 03:19:38;;;;;;;7.13;3.60;;;;;;;;;;6291131;22;20272;-89
2023/02/05 03:22:43;;;;;;;8.83;4.00;;;;;;;;;;6292716;22;20189;-88
2023/02/05 03:25:49;;;;;;;9.00;4.07;;;;;;;;;;6291653;22;20170;-88
2023/02/05 03:29:03;;;;;;;8.33;3.60;;;;;;;;;;6291962;22;20170;-87
2023/02/05 03:32:15;;;;;;;9.77;3.80;;;;;;;;;;6293237;22;20166;-90
2023/02/05 03:35:26;;;;;;;8.57;3.97;;;;;;;;;;6292492;22;20232;-90
2023/02/05 03:38:43;;;;;;;8.37;3.83;;;;;;;;;;6292411;22;20234;-89
2023/02/05 03:41:56;;;;;;;8.50;3.87;;;;;;;;;;6290920;22;20149;-89
2023/02/05 03:45:19;;;;;;;7.20;3.63;;;;;;;;;;6291424;22;20491;-90
2023/02/05 03:48:36;;;;;;;7.30;3.77;;;;;;;;;;6289694;22;20169;-88
2023/02/05 03:51:47;;;;;;;7.57;3.60;;;;;;;;;;6293022;22;20506;-89
2023/02/05 03:55:00;;;;;;;7.17;3.60;;;;;;;;;;6292648;22;20165;-89
2023/02/05 03:58:11;;;;;;;8.70;3.87;;;;;;;;;;6292652;22;20608;-89
2023/02/05 04:01:16;;;;;;;8.97;4.20;;;;;;;;;;6292100;22;20256;-91
2023/02/05 04:04:24;;;;;;;9.23;4.47;;;;;;;;;;6292270;22;20222;-88
2023/02/05 04:07:31;;;;;;;13.27;3.50;;;;;;;;;;6292662;22;20165;-88
2023/02/05 04:10:38;;;;;;;8.90;3.37;;;;;;;;;;6296569;22;20162;-88
2023/02/05 04:13:44;;;;;;;8.83;3.97;;;;;;;;;;6295458;22;20822;-88
2023/02/05 04:16:50;;;;;;;7.93;3.63;;;;;;;;;;6295879;22;20209;-88
2023/02/05 04:20:00;;;;;;;8.17;3.57;;;;;;;;;;6294591;22;20173;-89
2023/02/05 04:23:05;;;;;;;9.80;3.50;;;;;;;;;;6293557;22;20174;-89
2023/02/05 04:26:12;;;;;;;5.23;3.03;;;;;;;;;;6292611;22;20244;-90
2023/02/05 04:29:24;;;;;;;7.83;3.60;;;;;;;;;;6294987;22;20166;-89
2023/02/05 04:32:30;;;;;;;17.27;4.20;;;;;;;;;;6291571;22;20210;-89
2023/02/05 04:35:37;;;;;;;11.23;4.00;;;;;;;;;;6292883;22;20154;-89
2023/02/05 04:38:43;;;;;;;8.37;3.70;;;;;;;;;;6293457;22;20185;-91
2023/02/05 04:41:48;;;;;;;10.40;3.63;;;;;;;;;;6293351;22;20181;-90
2023/02/05 04:44:53;;;;;;;8.70;3.83;;;;;;;;;;6293163;22;20177;-88
2023/02/05 04:47:58;;;;;;;6.60;3.17;;;;;;;;;;6293961;22;20166;-88
2023/02/05 04:51:08;;;;;;;8.00;3.60;;;;;;;;;;6292458;22;20165;-88
2023/02/05 04:54:13;;;;;;;8.40;3.37;;;;;;;;;;6292233;22;20193;-89
2023/02/05 04:57:18;;;;;;;10.00;4.23;;;;;;;;;;6290431;22;20145;-87
2023/02/05 05:00:25;;;;;;;9.50;4.40;;;;;;;;;;6291728;22;20153;-88
2023/02/05 05:03:32;;;;;;;9.17;4.60;;;;;;;;;;6290315;22;20170;-90
2023/02/05 05:06:39;;;;;;;14.50;5.07;;;;;;;;;;6291077;22;20165;-90
2023/02/05 05:09:44;;;;;;;6.30;3.40;;;;;;;;;;6288977;22;20185;-89
2023/02/05 05:12:51;;;;;;;7.93;3.97;;;;;;;;;;6292187;22;20162;-88
2023/02/05 05:15:57;;;;;;;7.97;3.63;;;;;;;;;;6293950;22;20254;-88
2023/02/05 05:19:03;;;;;;;8.10;3.90;;;;;;;;;;6292266;22;20186;-89
2023/02/05 05:22:10;;;;;;;10.50;4.73;;;;;;;;;;6291274;22;20166;-89
2023/02/05 05:25:15;;;;;;;8.93;4.13;;;;;;;;;;6291108;22;20496;-90
2023/02/05 05:28:20;;;;;;;9.53;3.83;;;;;;;;;;6272378;22;20170;-92
2023/02/05 05:31:26;;;;;;;7.57;3.60;;;;;;;;;;6290593;22;20169;-89
2023/02/05 05:34:31;;;;;;;8.77;4.13;;;;;;;;;;6291096;22;20678;-90
2023/02/05 05:37:38;;;;;;;8.10;3.57;;;;;;;;;;6290321;22;20285;-89
2023/02/05 05:44:07;;;;;;;7.70;3.83;;;;;;;;;;6292214;22;20257;-90
2023/02/05 05:47:12;;;;;;;6.97;3.73;;;;;;;;;;6274082;22;20209;-89
2023/02/05 05:50:17;;;;;;;8.03;4.33;;;;;;;;;;6290721;22;20170;-89
2023/02/05 05:53:24;;;;;;;8.63;3.63;;;;;;;;;;6290088;22;20258;-88
2023/02/05 05:56:29;;;;;;;9.40;4.50;;;;;;;;;;6289083;22;20173;-90
2023/02/05 05:59:34;;;;;;;8.50;4.00;;;;;;;;;;6289910;22;20150;-90
2023/02/05 06:02:42;;;;;;;12.27;4.13;;;;;;;;;;6290041;22;20166;-89
2023/02/05 06:05:47;;;;;;;9.83;3.80;;;;;;;;;;6288716;22;20289;-89
2023/02/05 06:08:54;;;;;;;9.00;4.57;;;;;;;;;;6290371;22;20166;-89
2023/02/05 06:12:00;;;;;;;11.83;5.13;;;;;;;;;;6289961;22;20217;-89
2023/02/05 06:15:06;;;;;;;10.77;4.70;;;;;;;;;;6272776;22;20180;-89
2023/02/05 06:18:15;;;;;;;11.63;3.60;;;;;;;;;;6290495;22;20561;-88
2023/02/05 06:21:20;;;;;;;9.43;3.90;;;;;;;;;;6290680;22;20161;-91
2023/02/05 06:24:27;;;;;;;9.00;4.17;;;;;;;;;;6289768;22;20232;-88
2023/02/05 06:27:32;;;;;;;18.90;7.10;;;;;;;;;;6289462;22;20172;-89
2023/02/05 06:30:37;;;;;;;13.00;5.13;;;;;;;;;;6289273;22;20595;-90
2023/02/05 06:33:42;;;;;;;8.10;3.63;;;;;;;;;;6290681;22;20265;-88
2023/02/05 06:36:48;;;;;;;19.37;7.23;;;;;;;;;;6290872;22;20173;-87
2023/02/05 06:39:54;;;;;;;26.47;12.50;;;;;;;;;;6290024;22;20927;-88
2023/02/05 06:43:00;;;;;;;13.10;5.77;;;;;;;;;;6271575;22;20149;-89
2023/02/05 06:46:05;;;;;;;48.03;13.77;;;;;;;;;;6290393;22;20288;-90
2023/02/05 06:49:10;;;;;;;19.33;7.77;;;;;;;;;;6271822;22;20165;-91
2023/02/05 06:52:15;;;;;;;12.70;5.53;;;;;;;;;;6290676;22;20243;-89
2023/02/05 06:55:22;;;;;;;17.83;7.63;;;;;;;;;;6290493;22;20244;-88
2023/02/05 06:58:27;;;;;;;12.27;3.87;;;;;;;;;;6272281;22;20152;-88
2023/02/05 07:01:32;;;;;;;9.40;4.73;;;;;;;;;;6273554;22;20174;-90
2023/02/05 07:04:37;;;;;;;9.80;4.70;;;;;;;;;;6289893;22;20617;-90
2023/02/05 07:07:42;;;;;;;11.20;4.27;;;;;;;;;;6289984;22;20165;-90
2023/02/05 07:10:49;;;;;;;8.03;4.13;;;;;;;;;;6289970;22;20258;-90
2023/02/05 07:13:54;;;;;;;9.53;4.50;;;;;;;;;;6288034;22;20194;-90
2023/02/05 07:16:59;;;;;;;8.50;4.33;;;;;;;;;;6293461;22;20232;-90
2023/02/05 07:20:10;;;;;;;12.87;4.83;;;;;;;;;;6288993;22;20158;-89
2023/02/05 07:23:15;;;;;;;11.80;4.53;;;;;;;;;;6290328;22;20169;-89
2023/02/05 07:26:22;;;;;;;12.03;4.47;;;;;;;;;;6289849;22;20255;-88
2023/02/05 07:29:32;;;;;;;12.73;4.57;;;;;;;;;;6288434;22;20166;-89
2023/02/05 07:32:37;;;;;;;11.03;4.23;;;;;;;;;;6292017;22;20193;-88
2023/02/05 07:35:42;;;;;;;8.90;3.80;;;;;;;;;;6291197;22;20192;-93
2023/02/05 07:38:48;;;;;;;9.80;4.40;;;;;;;;;;6290529;22;20237;-89
2023/02/05 07:41:54;;;;;;;10.43;4.13;;;;;;;;;;6290493;22;20169;-89
2023/02/05 07:45:07;;;;;;;11.77;4.40;;;;;;;;;;6289286;22;20165;-90
2023/02/05 07:48:12;;;;;;;11.40;5.00;;;;;;;;;;6289723;22;20185;-88
2023/02/05 07:51:18;;;;;;;9.83;4.33;;;;;;;;;;6290598;22;20567;-90
2023/02/05 07:54:23;;;;;;;8.30;4.10;;;;;;;;;;6290838;22;20193;-89
2023/02/05 07:57:30;;;;;;;13.80;4.40;;;;;;;;;;6290286;22;20240;-89
2023/02/05 08:00:35;;;;;;;7.80;3.63;;;;;;;;;;6290503;22;20177;-85
2023/02/05 08:03:41;;;;;;;8.67;4.17;;;;;;;;;;6290857;22;20213;-88
2023/02/05 08:06:46;;;;;;;9.27;4.33;;;;;;;;;;6290403;22;20189;-90
2023/02/05 08:09:51;;;;;;;8.17;4.60;;;;;;;;;;6290753;22;20165;-88
2023/02/05 08:12:59;;;;;;;9.53;3.50;;;;;;;;;;6290433;22;20162;-91
2023/02/05 08:16:05;;;;;;;8.03;4.37;;;;;;;;;;6289901;22;20276;-89
2023/02/05 08:19:27;;;;;;;9.30;4.40;;;;;;;;;;6290191;22;20149;-90
2023/02/05 08:22:32;;;;;;;10.50;5.20;;;;;;;;;;6290279;22;20703;-91
2023/02/05 08:25:38;;;;;;;8.80;4.10;;;;;;;;;;6290215;22;20236;-92
2023/02/05 08:28:45;;;;;;;12.50;4.73;;;;;;;;;;6289198;22;20232;-89
2023/02/05 08:31:50;;;;;;;11.27;4.77;;;;;;;;;;6291753;22;20201;-89
2023/02/05 08:34:55;;;;;;;9.60;4.57;;;;;;;;;;6289886;22;20169;-87
2023/02/05 08:38:01;;;;;;;9.30;4.57;;;;;;;;;;6293301;22;20166;-90
2023/02/05 08:41:11;;;;;;;11.10;4.73;;;;;;;;;;6276474;22;20166;-89
2023/02/05 08:44:20;;;;;;;9.70;4.87;;;;;;;;;;6295589;22;20197;-91
2023/02/05 08:47:26;;;;;;;8.40;4.60;;;;;;;;;;6293360;22;20185;-88
2023/02/05 08:50:33;;;;;;;7.70;4.30;;;;;;;;;;6292794;22;20537;-88
2023/02/05 08:53:39;;;;;;;11.50;4.60;;;;;;;;;;6291011;22;20228;-88
2023/02/05 08:56:45;;;;;;;7.30;4.20;;;;;;;;;;6274703;22;20169;-92
2023/02/05 08:59:52;;;;;;;11.03;5.00;;;;;;;;;;6291534;22;20166;-91
2023/02/05 09:02:57;;;;;;;9.87;4.87;;;;;;;;;;6290030;22;20166;-88
2023/02/05 09:06:05;;;;;;;12.07;5.57;;;;;;;;;;6291725;22;20174;-90
2023/02/05 09:09:11;;;;;;;10.73;4.97;;;;;;;;;;6292402;22;20166;-89
2023/02/05 09:12:16;;;;;;;12.07;5.10;;;;;;;;;;6292643;22;20221;-89
2023/02/05 09:15:23;;;;;;;12.17;5.30;;;;;;;;;;6292526;22;20193;-90
2023/02/05 09:22:01;;;;;;;10.87;5.63;;;;;;;;;;6246446;23;20163;-89
2023/02/05 09:25:07;;;;;;;14.47;5.17;;;;;;;;;;6245634;22;20205;-91
2023/02/05 09:28:13;;;;;;;12.77;5.77;;;;;;;;;;6243475;23;20167;-89
2023/02/05 09:31:21;;;;;;;9.80;5.60;;;;;;;;;;6245075;23;20170;-90
2023/02/05 09:34:27;;;;;;;11.27;5.40;;;;;;;;;;6246316;22;20205;-89
2023/02/05 09:37:33;;;;;;;10.93;5.03;;;;;;;;;;6246711;23;20162;-88
2023/02/05 09:40:40;;;;;;;8.73;5.33;;;;;;;;;;6244089;22;20225;-88
2023/02/05 09:43:48;;;;;;;9.70;4.90;;;;;;;;;;6244938;22;20186;-89
2023/02/05 09:47:00;;;;;;;9.33;5.27;;;;;;;;;;6244995;22;20244;-88
2023/02/05 09:50:13;;;;;;;8.87;5.17;;;;;;;;;;6244192;22;20170;-90
2023/02/05 09:53:19;;;;;;;11.37;5.80;;;;;;;;;;6244789;23;20170;-86
2023/02/05 09:56:26;;;;;;;15.53;6.73;;;;;;;;;;6241673;23;20244;-89
2023/02/05 09:59:32;;;;;;;11.80;5.60;;;;;;;;;;6243089;22;20294;-90
2023/02/05 10:02:46;;;;;;;10.47;5.33;;;;;;;;;;6242687;22;20174;-89
2023/02/05 10:05:59;;;;;;;12.43;6.07;;;;;;;;;;6244337;22;20175;-90
2023/02/05 10:09:09;;;;;;;11.00;5.40;;;;;;;;;;6244239;23;20613;-92
2023/02/05 10:12:20;;;;;;;12.40;5.73;;;;;;;;;;6243062;23;20294;-87
2023/02/05 10:15:33;;;;;;;12.40;5.93;;;;;;;;;;6242512;23;20263;-88
2023/02/05 10:18:52;;;;;;;9.77;5.50;;;;;;;;;;6271639;22;20180;-87
2023/02/05 10:22:10;;;;;;;13.77;6.53;;;;;;;;;;6290021;22;20201;-91
2023/02/05 10:25:43;;;;;;;12.67;6.20;;;;;;;;;;6289597;22;20159;-88
2023/02/05 10:29:03;;;;;;;11.87;5.83;;;;;;;;;;6289523;22;20170;-88
2023/02/05 10:32:17;;;;;;;9.67;5.60;;;;;;;;;;6291038;22;20205;-90
2023/02/05 10:35:25;;;;;;;8.80;4.93;;;;;;;;;;6273336;22;20189;-88
2023/02/05 10:38:32;;;;;;;9.00;4.70;;;;;;;;;;6290307;22;20166;-87
2023/02/05 10:45:26;;;;;;;8.87;4.97;;;;;;;;;;6270294;22;20176;-89
2023/02/05 10:48:41;;;;;;;10.23;4.87;;;;;;;;;;6272482;22;20166;-88
2023/02/05 10:51:48;;;;;;;8.73;4.67;;;;;;;;;;6272263;22;20165;-88
2023/02/05 10:54:53;;;;;;;9.50;4.53;;;;;;;;;;6272131;22;20181;-89
2023/02/05 10:57:59;;;;;;;12.97;5.40;;;;;;;;;;6288723;22;20248;-90
2023/02/05 11:04:40;;;;;;;12.07;5.43;;;;;;;;;;6271145;22;20182;-89
2023/02/05 11:07:51;;;;;;;10.23;5.00;;;;;;;;;;6272577;22;20170;-88
2023/02/05 11:10:56;;;;;;;11.87;4.83;;;;;;;;;;6289751;22;20221;-90
2023/02/05 11:14:03;;;;;;;10.73;5.67;;;;;;;;;;6272518;22;20165;-89
2023/02/05 11:17:10;;;;;;;14.43;6.47;;;;;;;;;;6295806;22;20185;-88
2023/02/05 11:20:33;;;;;;;20.13;6.90;;;;;;;;;;6289391;22;20162;-89
2023/02/05 11:23:54;;;;;;;10.00;4.90;;;;;;;;;;6306616;22;20145;-89
2023/02/05 11:27:18;;;;;;;10.70;5.40;;;;;;;;;;6289831;22;20177;-87
2023/02/05 11:30:26;;;;;;;7.73;4.60;;;;;;;;;;6289554;22;20232;-90
2023/02/05 11:33:32;;;;;;;9.20;4.30;;;;;;;;;;6288306;22;20234;-90
2023/02/05 11:36:38;;;;;;;16.63;5.17;;;;;;;;;;6307871;22;20194;-91
2023/02/05 11:39:46;;;;;;;8.83;3.70;;;;;;;;;;6288040;22;20191;-89
2023/02/05 11:42:59;;;;;;;6.17;3.40;;;;;;;;;;6288127;22;20166;-90
2023/02/05 11:46:06;;;;;;;6.23;3.40;;;;;;;;;;6288320;22;20245;-89
2023/02/05 11:49:19;;;;;;;7.37;2.90;;;;;;;;;;6292825;22;20168;-91
2023/02/05 11:52:27;;;;;;;9.40;3.13;;;;;;;;;;6292840;22;20166;-87
2023/02/05 11:55:36;;;;;;;8.47;3.47;;;;;;;;;;6291582;22;20308;-88
2023/02/05 11:58:42;;;;;;;6.33;3.30;;;;;;;;;;6292156;22;20206;-90
2023/02/05 12:02:32;;;;;;;8.67;4.63;;;;;;;;;;6294103;22;20219;-87
2023/02/05 12:05:41;;;;;;;11.67;4.07;;;;;;;;;;6292712;22;20170;-89
2023/02/05 12:08:48;;;;;;;11.30;4.60;;;;;;;;;;6292584;22;20166;-89
2023/02/05 12:12:21;;;;;;;7.67;3.80;;;;;;;;;;6293743;22;20203;-89
2023/02/05 12:15:31;;;;;;;15.77;3.50;;;;;;;;;;6293238;22;20185;-90
2023/02/05 12:18:50;;;;;;;7.93;3.27;;;;;;;;;;6292394;22;20165;-88
2023/02/05 12:21:58;;;;;;;7.80;3.17;;;;;;;;;;6292965;22;20166;-89
2023/02/05 12:25:12;;;;;;;8.40;3.50;;;;;;;;;;6293626;22;20166;-91
2023/02/05 12:28:25;;;;;;;10.53;2.80;;;;;;;;;;6294025;22;20170;-89
2023/02/05 12:31:35;;;;;;;5.53;2.93;;;;;;;;;;6289902;22;20166;-88
2023/02/05 12:34:44;;;;;;;4.13;2.43;;;;;;;;;;6292490;22;20213;-90
2023/02/05 12:37:53;;;;;;;7.43;2.47;;;;;;;;;;6292039;22;20185;-90
2023/02/05 12:41:04;;;;;;;3.33;2.00;;;;;;;;;;6290816;22;20170;-89
2023/02/05 12:44:18;;;;;;;5.93;2.40;;;;;;;;;;6291540;22;20165;-88
2023/02/05 12:47:35;;;;;;;3.83;2.33;;;;;;;;;;6292831;22;20261;-88
2023/02/05 12:51:02;;;;;;;6.20;2.70;;;;;;;;;;6293747;22;20240;-91
2023/02/05 12:54:17;;;;;;;10.33;2.97;;;;;;;;;;6293094;22;20209;-89
2023/02/05 12:57:24;;;;;;;8.50;2.50;;;;;;;;;;6292277;22;20230;-91
2023/02/05 13:00:41;;;;;;;5.37;2.07;;;;;;;;;;6293341;22;20201;-91
2023/02/05 13:03:49;;;;;;;6.13;2.80;;;;;;;;;;6295715;22;20166;-91
2023/02/05 13:06:59;;;;;;;4.60;2.60;;;;;;;;;;6296215;22;20169;-89
2023/02/05 13:10:07;;;;;;;4.30;2.20;;;;;;;;;;6296423;22;20157;-90
2023/02/05 13:13:57;;;;;;;6.13;2.30;;;;;;;;;;6296136;22;20193;-89
2023/02/05 13:17:05;;;;;;;4.50;2.23;;;;;;;;;;6294940;22;20256;-88
2023/02/05 13:30:44;;;;;;;6.00;3.40;;;;;;;;;;6267710;22;20194;-88
2023/02/05 13:33:51;;;;;;;4.47;2.27;;;;;;;;;;6294110;22;20213;-90
2023/02/05 13:37:12;;;;;;;4.03;2.50;;;;;;;;;;6295093;22;20177;-87
2023/02/05 13:40:31;;;;;;;5.10;2.53;;;;;;;;;;6294150;22;20153;-90
2023/02/05 13:43:46;;;;;;;4.23;2.00;;;;;;;;;;6295294;22;20161;-88
2023/02/05 13:47:16;;;;;;;3.73;2.30;;;;;;;;;;6296156;22;20170;-90
2023/02/05 13:50:41;;;;;;;6.27;2.90;;;;;;;;;;6294040;22;20443;-89
2023/02/05 13:53:55;;;;;;;4.87;2.70;;;;;;;;;;6299245;22;20193;-93
2023/02/05 13:57:13;;;;;;;11.87;2.97;;;;;;;;;;6299176;22;20197;-90
2023/02/05 17:38:19;;;;;;;30.70;11.50;;;;;;;;;;6290952;22;20237;-90
2023/02/05 17:44:49;;;;;;;41.00;13.67;;;;;;;;;;6305455;22;20145;-92
2023/02/05 17:47:54;;;;;;;62.33;18.13;;;;;;;;;;6305098;22;20192;-90
2023/02/05 17:51:03;;;;;;;112.33;27.27;;;;;;;;;;6306972;22;20180;-89
2023/02/05 17:54:13;;;;;;;25.97;10.57;;;;;;;;;;6306824;22;20505;-92
2023/02/05 17:57:19;;;;;;;27.93;8.27;;;;;;;;;;6307174;22;20189;-89
2023/02/05 18:00:32;;;;;;;47.63;11.57;;;;;;;;;;6307837;22;20176;-88
2023/02/05 18:03:40;;;;;;;112.90;20.40;;;;;;;;;;6307658;22;20172;-88
2023/02/05 18:06:47;;;;;;;37.20;11.37;;;;;;;;;;6308457;22;20219;-88
2023/02/05 18:09:54;;;;;;;24.63;7.80;;;;;;;;;;6307179;22;20168;-91
2023/02/05 18:13:34;;;;;;;18.50;7.17;;;;;;;;;;6306428;22;20233;-91
2023/02/05 18:16:41;;;;;;;37.63;11.83;;;;;;;;;;6307977;22;20227;-88
2023/02/05 18:19:55;;;;;;;28.93;11.13;;;;;;;;;;6307549;22;20275;-88
2023/02/05 18:23:01;;;;;;;22.93;9.47;;;;;;;;;;6310554;22;20243;-89
2023/02/05 18:26:11;;;;;;;20.60;7.97;;;;;;;;;;6308504;22;20665;-89
2023/02/05 18:29:16;;;;;;;24.23;10.17;;;;;;;;;;6307820;22;20226;-89
2023/02/05 18:32:23;;;;;;;26.50;10.10;;;;;;;;;;6310091;22;20161;-88
2023/02/05 18:35:30;;;;;;;23.17;9.93;;;;;;;;;;6310572;22;20229;-88
2023/02/05 18:38:36;;;;;;;27.63;10.17;;;;;;;;;;6295762;22;20185;-90
2023/02/05 18:41:46;;;;;;;29.07;10.77;;;;;;;;;;6278051;22;20169;-87
2023/02/05 18:44:55;;;;;;;26.47;11.37;;;;;;;;;;6294985;22;20150;-90
2023/02/05 18:48:05;;;;;;;23.50;9.97;;;;;;;;;;6278618;22;20166;-89
2023/02/05 18:51:12;;;;;;;25.57;10.13;;;;;;;;;;6277519;22;20180;-89
2023/02/05 18:54:18;;;;;;;19.27;8.83;;;;;;;;;;6278526;22;20165;-88
2023/02/05 18:57:26;;;;;;;23.23;9.40;;;;;;;;;;6279894;22;20240;-91
2023/02/05 19:00:33;;;;;;;30.67;10.93;;;;;;;;;;6279625;22;20158;-88
2023/02/05 19:03:39;;;;;;;16.43;7.80;;;;;;;;;;6280375;22;20153;-90
2023/02/05 19:06:47;;;;;;;15.03;6.70;;;;;;;;;;6278627;22;20563;-88
2023/02/05 19:09:55;;;;;;;16.23;7.17;;;;;;;;;;6277828;22;20170;-89
2023/02/05 19:16:41;;;;;;;15.80;6.53;;;;;;;;;;6280023;22;20185;-89
2023/02/05 19:19:54;;;;;;;13.43;6.07;;;;;;;;;;6279162;22;20189;-89
2023/02/05 19:23:00;;;;;;;14.63;7.87;;;;;;;;;;6280025;22;20194;-89
2023/02/05 19:26:08;;;;;;;15.23;6.70;;;;;;;;;;6278656;22;20181;-90
2023/02/05 19:29:18;;;;;;;15.50;6.53;;;;;;;;;;6278791;22;20174;-89
2023/02/05 19:32:27;;;;;;;15.50;6.63;;;;;;;;;;6278568;22;20166;-88
2023/02/05 19:35:34;;;;;;;19.60;8.63;;;;;;;;;;6276086;22;20536;-88
2023/02/05 19:38:40;;;;;;;17.63;7.67;;;;;;;;;;6290438;22;20188;-88
2023/02/05 19:41:47;;;;;;;14.40;6.33;;;;;;;;;;6305550;22;20211;-89
2023/02/05 19:44:53;;;;;;;12.53;6.40;;;;;;;;;;6307029;22;20191;-88
2023/02/05 19:48:04;;;;;;;15.63;6.93;;;;;;;;;;6309951;22;20165;-88
2023/02/05 19:51:11;;;;;;;17.00;7.97;;;;;;;;;;6310067;22;20169;-88
2023/02/05 19:54:18;;;;;;;15.27;7.30;;;;;;;;;;6306809;22;20161;-88
2023/02/05 19:57:24;;;;;;;20.10;7.17;;;;;;;;;;6308367;22;20189;-89
2023/02/05 20:00:30;;;;;;;18.17;6.80;;;;;;;;;;6306588;22;20180;-88
2023/02/05 20:03:37;;;;;;;17.27;8.43;;;;;;;;;;6308441;22;20173;-89
2023/02/05 20:06:43;;;;;;;22.23;8.40;;;;;;;;;;6307634;22;20172;-88
2023/02/05 20:09:52;;;;;;;23.80;8.87;;;;;;;;;;6307818;22;20169;-87
2023/02/05 20:12:59;;;;;;;15.90;7.40;;;;;;;;;;6309479;22;20165;-89
2023/02/05 20:16:04;;;;;;;19.20;7.50;;;;;;;;;;6305471;22;20170;-88
2023/02/05 20:19:16;;;;;;;15.37;6.47;;;;;;;;;;6307164;22;20196;-89
2023/02/05 20:22:23;;;;;;;22.67;10.10;;;;;;;;;;6308561;22;20184;-88
2023/02/05 20:25:29;;;;;;;19.87;7.77;;;;;;;;;;6307473;22;20169;-89
2023/02/05 20:31:31;;;;;;;17.03;7.53;;;;;;;;;;6324900;22;20188;-90
2023/02/05 20:32:01;;;;;;;17.83;8.20;;;;;;;;;;6309541;22;20185;-90
2023/02/05 20:35:08;;;;;;;16.07;6.60;;;;;;;;;;6310397;22;20161;-88
2023/02/05 20:38:14;;;;;;;13.40;6.00;;;;;;;;;;6312239;22;20227;-88
2023/02/05 20:41:21;;;;;;;13.03;6.10;;;;;;;;;;6310939;22;20229;-90
2023/02/05 20:44:28;;;;;;;14.73;6.70;;;;;;;;;;6311371;22;20172;-89
2023/02/05 20:47:33;;;;;;;20.20;7.77;;;;;;;;;;6310442;22;20184;-90
2023/02/05 20:50:41;;;;;;;17.57;7.83;;;;;;;;;;6310394;22;20180;-89
2023/02/05 20:53:47;;;;;;;17.43;7.80;;;;;;;;;;6310825;22;20161;-90
2023/02/05 20:56:55;;;;;;;15.10;6.87;;;;;;;;;;6310586;22;20184;-88
2023/02/05 21:00:39;;;;;;;16.10;7.20;;;;;;;;;;6309706;22;20217;-88
2023/02/05 21:03:47;;;;;;;17.77;7.10;;;;;;;;;;6311276;22;20161;-89
2023/02/05 21:06:59;;;;;;;18.73;7.27;;;;;;;;;;6310996;22;20169;-88
2023/02/05 21:10:05;;;;;;;24.20;9.50;;;;;;;;;;6311425;22;20173;-89
2023/02/05 21:17:37;;;;;;;13.63;6.40;;;;;;;;;;6328247;22;20211;-87
2023/02/05 21:20:46;;;;;;;15.70;6.57;;;;;;;;;;6310182;22;20198;-90
2023/02/05 21:23:58;;;;;;;16.80;6.67;;;;;;;;;;6293270;22;20185;-88
2023/02/05 21:27:03;;;;;;;15.73;7.17;;;;;;;;;;6310104;22;20199;-87
2023/02/05 21:30:10;;;;;;;17.43;8.10;;;;;;;;;;6310893;22;20165;-88
2023/02/05 21:33:16;;;;;;;21.93;7.93;;;;;;;;;;6310349;22;20209;-88
2023/02/05 21:36:23;;;;;;;16.87;7.73;;;;;;;;;;6309858;22;20180;-90
2023/02/05 21:39:31;;;;;;;13.50;7.20;;;;;;;;;;6328550;22;20253;-87
2023/02/05 21:42:37;;;;;;;17.43;7.57;;;;;;;;;;6309537;22;20168;-89
2023/02/05 21:45:44;;;;;;;19.47;7.60;;;;;;;;;;6308269;22;20288;-89
2023/02/05 21:48:51;;;;;;;16.87;7.63;;;;;;;;;;6308485;22;20223;-89
2023/02/05 21:51:56;;;;;;;22.60;7.83;;;;;;;;;;6307520;22;20215;-91
2023/02/05 21:55:03;;;;;;;17.37;7.37;;;;;;;;;;6308268;22;20166;-88
2023/02/05 21:58:09;;;;;;;19.83;7.93;;;;;;;;;;6307675;22;20176;-90
2023/02/05 22:01:15;;;;;;;17.30;7.97;;;;;;;;;;6307914;22;20164;-88
2023/02/05 22:04:20;;;;;;;17.47;7.60;;;;;;;;;;6307853;22;20161;-90
2023/02/05 22:07:26;;;;;;;18.50;7.80;;;;;;;;;;6307244;22;20208;-87
2023/02/05 22:10:33;;;;;;;15.83;7.30;;;;;;;;;;6307728;22;20199;-89
2023/02/05 22:13:44;;;;;;;13.63;6.57;;;;;;;;;;6309242;22;20157;-90
2023/02/05 22:16:49;;;;;;;17.13;7.60;;;;;;;;;;6306867;22;20176;-89
2023/02/05 22:20:02;;;;;;;15.67;6.57;;;;;;;;;;6325582;22;20209;-88
2023/02/05 22:23:07;;;;;;;18.50;7.43;;;;;;;;;;6308528;22;20196;-87
2023/02/05 22:26:14;;;;;;;14.97;6.87;;;;;;;;;;6306984;22;20169;-89
2023/02/05 22:29:20;;;;;;;13.63;6.43;;;;;;;;;;6308706;22;20193;-89
2023/02/05 22:32:28;;;;;;;15.67;7.17;;;;;;;;;;6309053;22;20201;-89
2023/02/05 22:35:36;;;;;;;14.17;7.10;;;;;;;;;;6311323;22;20208;-89
2023/02/05 22:38:42;;;;;;;16.13;6.73;;;;;;;;;;6308261;22;20209;-89
2023/02/05 22:41:49;;;;;;;18.83;7.10;;;;;;;;;;6308175;22;20166;-91
2023/02/05 23:34:43;;;;;;;14.63;6.10;;;;;;;;;;6146316;22;2223089;-90
2023/02/05 23:38:00;;;;;;;16.60;6.83;;;;;;;;;;6223953;23;20171;-89
2023/02/05 23:41:06;;;;;;;21.27;6.77;;;;;;;;;;6223350;23;20170;-91
2023/02/05 23:44:13;;;;;;;14.57;6.97;;;;;;;;;;6223192;23;20178;-87